createdAt,value
2022-11-27T00:00:34.398Z,13.45
2022-11-27T00:03:01.045Z,14.13
2022-11-27T00:05:27.681Z,14.60
2022-11-27T00:07:54.331Z,14.23
2022-11-27T00:10:20.982Z,13.88
2022-11-27T00:12:47.566Z,13.40
2022-11-27T00:15:17.201Z,14.25
2022-11-27T00:17:44.177Z,13.85
2022-11-27T00:20:10.943Z,14.45
2022-11-27T00:22:37.552Z,14.48
2022-11-27T00:25:04.330Z,13.62
2022-11-27T00:27:30.938Z,13.88
2022-11-27T00:29:57.501Z,15.70
2022-11-27T00:32:24.075Z,14.63
2022-11-27T00:34:50.642Z,14.38
2022-11-27T00:37:17.217Z,14.48
2022-11-27T00:39:43.845Z,14.60
2022-11-27T00:42:10.446Z,14.40
2022-11-27T00:44:37.231Z,14.38
2022-11-27T00:47:04.010Z,14.68
2022-11-27T00:49:30.610Z,14.82
2022-11-27T00:51:57.194Z,14.00
2022-11-27T00:54:23.743Z,14.52
2022-11-27T00:56:50.384Z,14.55
2022-11-27T00:59:16.982Z,14.70
2022-11-27T01:01:43.891Z,14.25
2022-11-27T01:04:15.230Z,14.27
2022-11-27T01:06:41.951Z,13.77
2022-11-27T01:09:08.731Z,13.95
2022-11-27T01:11:35.427Z,13.30
2022-11-27T01:14:06.872Z,13.62
2022-11-27T01:16:33.623Z,13.20
2022-11-27T01:19:00.817Z,13.30
2022-11-27T01:21:29.048Z,13.65
2022-11-27T01:23:55.684Z,13.52
2022-11-27T01:26:22.381Z,14.23
2022-11-27T01:28:51.968Z,12.65
2022-11-27T01:31:20.944Z,13.52
2022-11-27T01:33:47.863Z,13.52
2022-11-27T01:36:15.342Z,13.85
2022-11-27T01:38:41.980Z,13.52
2022-11-27T01:41:14.474Z,12.68
2022-11-27T01:43:48.221Z,13.10
2022-11-27T01:46:35.392Z,12.63
2022-11-27T01:49:10.987Z,12.85
2022-11-27T01:54:04.360Z,12.10
2022-11-27T01:56:30.965Z,12.73
2022-11-27T01:58:57.765Z,12.57
2022-11-27T02:01:26.150Z,12.23
2022-11-27T02:03:53.929Z,13.35
2022-11-27T02:06:20.502Z,12.40
2022-11-27T02:08:47.071Z,13.20
2022-11-27T02:11:19.344Z,12.63
2022-11-27T02:13:47.885Z,12.85
2022-11-27T02:16:34.421Z,12.68
2022-11-27T02:19:00.909Z,13.05
2022-11-27T02:21:39.745Z,12.93
2022-11-27T02:24:44.042Z,13.73
2022-11-27T02:27:38.727Z,12.27
2022-11-27T02:30:05.895Z,11.80
2022-11-27T02:32:34.494Z,12.70
2022-11-27T02:35:14.755Z,13.10
2022-11-27T02:37:49.758Z,12.20
2022-11-27T02:40:49.870Z,12.15
2022-11-27T02:43:22.565Z,12.80
2022-11-27T02:45:50.652Z,11.85
2022-11-27T02:48:19.765Z,11.95
2022-11-27T02:50:46.350Z,12.07
2022-11-27T02:53:15.365Z,11.52
2022-11-27T02:55:41.922Z,12.48
2022-11-27T02:58:10.353Z,12.65
2022-11-27T03:00:36.986Z,12.75
2022-11-27T03:03:05.856Z,11.90
2022-11-27T03:05:34.098Z,12.60
2022-11-27T03:08:05.906Z,12.70
2022-11-27T03:10:50.724Z,12.88
2022-11-27T03:13:17.273Z,12.10
2022-11-27T03:16:09.251Z,11.63
2022-11-27T03:18:43.048Z,12.15
2022-11-27T03:21:17.566Z,12.75
2022-11-27T03:23:44.143Z,12.30
2022-11-27T03:26:10.744Z,12.18
2022-11-27T03:28:37.317Z,11.75
2022-11-27T03:31:04.104Z,12.37
2022-11-27T03:33:30.671Z,12.37
2022-11-27T03:35:57.234Z,12.50
2022-11-27T03:38:23.831Z,11.98
2022-11-27T03:41:19.412Z,12.50
2022-11-27T03:44:26.327Z,12.37
2022-11-27T03:47:11.205Z,12.35
2022-11-27T03:49:51.365Z,12.43
2022-11-27T03:52:33.463Z,12.13
2022-11-27T03:55:03.982Z,11.80
2022-11-27T03:57:35.273Z,12.80
2022-11-27T04:00:03.639Z,12.18
2022-11-27T04:02:32.482Z,12.27
2022-11-27T04:04:59.078Z,11.77
2022-11-27T04:07:25.705Z,11.35
2022-11-27T04:09:52.338Z,10.82
2022-11-27T04:12:18.935Z,10.65
2022-11-27T04:14:45.575Z,11.23
2022-11-27T04:17:12.110Z,10.43
2022-11-27T04:19:38.662Z,10.82
2022-11-27T04:22:05.589Z,11.30
2022-11-27T04:24:32.162Z,10.60
2022-11-27T04:26:58.764Z,10.90
2022-11-27T04:29:25.365Z,10.40
2022-11-27T04:31:51.994Z,10.38
2022-11-27T04:34:18.697Z,9.73
2022-11-27T04:36:46.246Z,10.00
2022-11-27T04:39:13.448Z,10.57
2022-11-27T04:41:40.060Z,9.85
2022-11-27T04:44:06.710Z,10.73
2022-11-27T04:46:33.447Z,9.75
2022-11-27T04:49:00.045Z,10.00
2022-11-27T04:51:26.599Z,9.90
2022-11-27T04:53:53.212Z,9.45
2022-11-27T04:56:19.846Z,10.05
2022-11-27T04:58:46.415Z,10.50
2022-11-27T05:01:13.147Z,9.90
2022-11-27T05:03:39.872Z,9.55
2022-11-27T05:06:06.454Z,9.70
2022-11-27T05:08:33.653Z,9.68
2022-11-27T05:11:04.283Z,10.25
2022-11-27T05:13:30.923Z,9.63
2022-11-27T05:15:57.533Z,9.65
2022-11-27T05:18:24.141Z,9.63
2022-11-27T05:20:58.210Z,10.65
2022-11-27T05:23:24.991Z,9.23
2022-11-27T05:25:51.792Z,9.95
2022-11-27T05:28:21.158Z,9.77
2022-11-27T05:30:51.754Z,10.23
2022-11-27T05:33:18.542Z,10.57
2022-11-27T05:35:45.550Z,10.15
2022-11-27T05:38:12.672Z,9.32
2022-11-27T05:40:39.604Z,9.90
2022-11-27T05:43:06.193Z,9.85
2022-11-27T05:45:32.780Z,9.80
2022-11-27T05:47:59.368Z,9.95
2022-11-27T05:50:25.997Z,10.68
2022-11-27T05:52:52.602Z,10.43
2022-11-27T05:55:19.191Z,9.75
2022-11-27T05:57:45.759Z,9.73
2022-11-27T06:00:12.914Z,9.48
2022-11-27T06:02:39.584Z,9.73
2022-11-27T06:05:06.798Z,9.57
2022-11-27T06:07:33.397Z,10.07
2022-11-27T06:10:00.051Z,10.80
2022-11-27T06:12:26.664Z,9.95
2022-11-27T06:14:53.249Z,9.93
2022-11-27T06:17:19.829Z,11.00
2022-11-27T06:19:46.525Z,10.55
2022-11-27T06:22:13.106Z,10.27
2022-11-27T06:24:39.882Z,9.70
2022-11-27T06:27:06.683Z,10.50
2022-11-27T06:29:33.310Z,10.32
2022-11-27T06:31:59.904Z,10.07
2022-11-27T06:34:26.554Z,10.00
2022-11-27T06:36:53.161Z,10.73
2022-11-27T06:39:19.775Z,10.63
2022-11-27T06:41:46.345Z,9.77
2022-11-27T06:44:13.024Z,10.77
2022-11-27T06:46:39.597Z,10.18
2022-11-27T06:49:06.168Z,10.43
2022-11-27T06:51:32.762Z,10.38
2022-11-27T06:53:59.990Z,11.02
2022-11-27T06:56:27.343Z,11.00
2022-11-27T06:58:55.182Z,10.15
2022-11-27T07:01:22.264Z,9.95
2022-11-27T07:03:48.877Z,11.18
2022-11-27T07:06:16.287Z,11.20
2022-11-27T07:08:43.275Z,10.80
2022-11-27T07:11:20.759Z,10.35
2022-11-27T07:13:47.547Z,9.98
2022-11-27T07:16:14.315Z,10.80
2022-11-27T07:18:45.613Z,10.60
2022-11-27T07:21:12.366Z,11.15
2022-11-27T07:23:39.007Z,10.18
2022-11-27T07:26:10.729Z,10.73
2022-11-27T07:28:37.324Z,10.77
2022-11-27T07:31:04.002Z,10.38
2022-11-27T07:33:30.638Z,10.25
2022-11-27T07:36:04.593Z,9.98
2022-11-27T07:38:31.137Z,10.55
2022-11-27T07:41:04.004Z,10.82
2022-11-27T07:43:30.923Z,10.45
2022-11-27T07:45:58.923Z,10.35
2022-11-27T07:48:25.620Z,10.18
2022-11-27T07:50:52.187Z,10.68
2022-11-27T07:53:18.754Z,10.52
2022-11-27T07:55:45.480Z,9.93
2022-11-27T07:58:12.192Z,10.15
2022-11-27T08:00:38.823Z,10.13
2022-11-27T08:03:05.442Z,10.43
2022-11-27T08:05:34.590Z,9.35
2022-11-27T08:08:01.538Z,9.52
2022-11-27T08:10:28.259Z,10.45
2022-11-27T08:12:54.844Z,9.77
2022-11-27T08:15:21.437Z,10.18
2022-11-27T08:17:48.022Z,10.02
2022-11-27T08:20:14.587Z,10.13
2022-11-27T08:22:41.174Z,10.57
2022-11-27T08:25:08.209Z,10.02
2022-11-27T08:27:36.242Z,9.32
2022-11-27T08:30:03.901Z,10.38
2022-11-27T08:32:30.473Z,9.38
2022-11-27T08:34:57.100Z,9.85
2022-11-27T08:37:23.715Z,9.10
2022-11-27T08:39:50.255Z,9.95
2022-11-27T08:42:16.888Z,9.68
2022-11-27T08:44:43.583Z,9.68
2022-11-27T08:47:10.486Z,9.30
2022-11-27T08:49:39.118Z,10.02
2022-11-27T08:52:08.142Z,9.20
2022-11-27T08:54:34.914Z,9.60
2022-11-27T08:57:01.545Z,9.55
2022-11-27T08:59:28.110Z,9.80
2022-11-27T09:01:54.724Z,9.40
2022-11-27T09:04:21.438Z,10.02
2022-11-27T09:06:49.293Z,9.68
2022-11-27T09:09:16.982Z,9.85
2022-11-27T09:11:43.610Z,9.55
2022-11-27T09:14:11.189Z,9.15
2022-11-27T09:16:37.838Z,9.90
2022-11-27T09:19:04.562Z,9.05
2022-11-27T09:21:31.162Z,10.23
2022-11-27T09:23:58.717Z,8.93
2022-11-27T09:26:25.913Z,10.07
2022-11-27T09:28:55.860Z,9.88
2022-11-27T09:31:22.877Z,9.88
2022-11-27T09:33:49.623Z,10.50
2022-11-27T09:36:18.038Z,10.52
2022-11-27T09:38:44.830Z,9.93
2022-11-27T09:41:13.864Z,10.40
2022-11-27T09:43:44.017Z,10.10
2022-11-27T09:46:17.422Z,10.27
2022-11-27T09:48:46.043Z,10.10
2022-11-27T09:51:25.836Z,10.48
2022-11-27T09:54:04.555Z,10.52
2022-11-27T09:56:31.632Z,10.43
2022-11-27T09:58:59.039Z,10.50
2022-11-27T10:01:36.613Z,10.18
2022-11-27T10:04:11.536Z,10.50
2022-11-27T10:07:10.781Z,10.50
2022-11-27T10:10:05.380Z,10.77
2022-11-27T10:12:56.360Z,10.13
2022-11-27T10:15:36.384Z,9.73
2022-11-27T10:18:09.342Z,10.15
2022-11-27T10:20:54.399Z,10.55
2022-11-27T10:23:29.917Z,10.60
2022-11-27T10:26:00.150Z,10.55
2022-11-27T10:28:48.657Z,10.60
2022-11-27T10:31:26.017Z,10.85
2022-11-27T10:33:59.994Z,11.95
2022-11-27T10:36:30.278Z,9.65
2022-11-27T10:38:57.002Z,11.27
2022-11-27T10:41:48.109Z,10.52
2022-11-27T10:44:22.699Z,10.13
2022-11-27T10:46:49.385Z,11.27
2022-11-27T10:49:15.982Z,10.77
2022-11-27T10:51:43.844Z,10.70
2022-11-27T10:54:16.406Z,11.35
2022-11-27T10:57:20.603Z,11.05
2022-11-27T10:59:53.526Z,11.55
2022-11-27T11:02:39.573Z,11.40
2022-11-27T11:05:56.846Z,11.57
2022-11-27T11:08:18.384Z,10.20
2022-11-27T11:10:50.971Z,10.85
2022-11-27T11:13:22.419Z,10.77
2022-11-27T11:15:57.389Z,11.15
2022-11-27T11:18:35.682Z,10.45
2022-11-27T11:21:03.705Z,11.23
2022-11-27T11:23:38.540Z,10.95
2022-11-27T11:26:23.440Z,11.38
2022-11-27T11:28:52.218Z,10.15
2022-11-27T11:31:21.125Z,10.88
2022-11-27T11:33:56.480Z,11.35
2022-11-27T11:36:23.069Z,11.12
2022-11-27T11:38:49.860Z,12.25
2022-11-27T11:41:18.824Z,11.57
2022-11-27T11:43:59.868Z,11.60
2022-11-27T11:46:29.764Z,11.57
2022-11-27T11:49:07.126Z,11.55
2022-11-27T11:51:55.578Z,11.40
2022-11-27T11:54:50.255Z,10.90
2022-11-27T11:57:49.207Z,11.23
2022-11-27T12:00:17.386Z,11.57
2022-11-27T12:03:11.813Z,10.88
2022-11-27T12:05:46.565Z,10.95
2022-11-27T12:08:57.629Z,11.07
2022-11-27T12:11:48.479Z,11.30
2022-11-27T12:14:36.877Z,10.45
2022-11-27T12:17:25.183Z,10.98
2022-11-27T12:20:15.310Z,10.40
2022-11-27T12:22:50.937Z,10.73
2022-11-27T12:25:23.726Z,10.88
2022-11-27T12:27:50.135Z,9.80
2022-11-27T12:30:28.589Z,9.80
2022-11-27T12:32:58.939Z,11.00
2022-11-27T12:35:32.529Z,10.48
2022-11-27T12:38:20.695Z,10.43
2022-11-27T12:41:11.865Z,9.95
2022-11-27T12:43:44.137Z,10.30
2022-11-27T12:46:20.018Z,10.63
2022-11-27T12:48:48.056Z,10.40
2022-11-27T12:51:51.362Z,9.23
2022-11-27T12:54:43.733Z,10.13
2022-11-27T12:57:23.884Z,10.05
2022-11-27T12:59:58.411Z,9.45
2022-11-27T13:02:43.375Z,10.35
2022-11-27T13:05:24.789Z,9.73
2022-11-27T13:08:15.773Z,9.77
2022-11-27T13:10:54.666Z,9.98
2022-11-27T13:13:24.335Z,9.88
2022-11-27T13:15:53.961Z,9.73
2022-11-27T13:18:38.502Z,9.95
2022-11-27T13:21:08.532Z,9.77
2022-11-27T13:23:35.264Z,9.82
2022-11-27T13:26:06.958Z,9.45
2022-11-27T13:28:44.245Z,9.13
2022-11-27T13:31:27.202Z,9.68
2022-11-27T13:33:59.327Z,9.45
2022-11-27T13:36:32.121Z,8.45
2022-11-27T13:39:02.092Z,9.05
2022-11-27T13:41:34.084Z,9.43
2022-11-27T13:44:00.695Z,8.75
2022-11-27T13:46:29.029Z,10.15
2022-11-27T13:49:03.547Z,9.60
2022-11-27T13:51:37.504Z,8.50
2022-11-27T13:54:09.745Z,9.02
2022-11-27T13:56:36.342Z,9.23
2022-11-27T13:59:22.757Z,8.57
2022-11-27T14:02:06.072Z,8.90
2022-11-27T14:04:33.093Z,8.63
2022-11-27T14:07:07.022Z,8.73
2022-11-27T14:09:39.111Z,8.95
2022-11-27T14:12:22.097Z,8.20
2022-11-27T14:15:07.001Z,9.23
2022-11-27T14:17:41.014Z,9.07
2022-11-27T14:20:09.796Z,9.00
2022-11-27T14:23:12.415Z,9.18
2022-11-27T14:25:40.132Z,8.70
2022-11-27T14:28:22.437Z,8.25
2022-11-27T14:30:50.878Z,7.53
2022-11-27T14:33:25.145Z,7.57
2022-11-27T14:36:02.094Z,8.55
2022-11-27T14:38:29.970Z,7.95
2022-11-27T14:41:08.506Z,8.35
2022-11-27T14:43:35.102Z,7.93
2022-11-27T14:46:01.941Z,8.45
2022-11-27T14:48:46.903Z,7.50
2022-11-27T14:51:18.657Z,7.60
2022-11-27T14:53:48.873Z,7.90
2022-11-27T14:56:15.668Z,7.35
2022-11-27T14:58:50.198Z,6.78
2022-11-27T15:01:26.094Z,7.87
2022-11-27T15:03:56.767Z,7.50
2022-11-27T15:06:23.514Z,7.10
2022-11-27T15:09:09.038Z,7.32
2022-11-27T15:11:55.200Z,7.20
2022-11-27T15:14:22.534Z,7.45
2022-11-27T15:16:50.386Z,7.72
2022-11-27T15:19:38.487Z,7.62
2022-11-27T15:22:05.184Z,8.40
2022-11-27T15:24:32.556Z,7.90
2022-11-27T15:27:31.094Z,7.87
2022-11-27T15:30:02.671Z,8.00
2022-11-27T15:32:42.234Z,6.80
2022-11-27T15:35:15.416Z,6.57
2022-11-27T15:37:42.155Z,7.30
2022-11-27T15:40:31.909Z,7.53
2022-11-27T15:42:58.570Z,6.57
2022-11-27T15:45:27.830Z,7.12
2022-11-27T15:47:59.461Z,6.82
2022-11-27T15:50:26.094Z,6.82
2022-11-27T15:52:52.651Z,6.55
2022-11-27T15:55:19.233Z,6.32
2022-11-27T15:57:46.261Z,6.95
2022-11-27T16:00:13.253Z,6.30
2022-11-27T16:02:39.904Z,6.70
2022-11-27T16:05:07.121Z,6.57
2022-11-27T16:07:34.031Z,6.60
2022-11-27T16:10:00.764Z,7.30
2022-11-27T16:12:27.373Z,6.35
2022-11-27T16:14:53.953Z,6.15
2022-11-27T16:17:20.792Z,6.82
2022-11-27T16:19:47.370Z,6.70
2022-11-27T16:22:13.986Z,6.53
2022-11-27T16:24:41.308Z,6.20
2022-11-27T16:27:08.091Z,7.10
2022-11-27T16:29:34.703Z,6.30
2022-11-27T16:32:02.224Z,6.75
2022-11-27T16:34:28.948Z,6.25
2022-11-27T16:36:55.548Z,6.03
2022-11-27T16:39:22.149Z,6.12
2022-11-27T16:41:48.703Z,6.25
2022-11-27T16:44:15.559Z,5.93
2022-11-27T16:46:43.869Z,6.22
2022-11-27T16:49:11.197Z,6.37
2022-11-27T16:51:39.239Z,6.15
2022-11-27T16:54:06.692Z,5.68
2022-11-27T16:56:33.679Z,5.82
2022-11-27T16:59:02.986Z,6.12
2022-11-27T17:01:32.094Z,6.03
2022-11-27T17:03:59.677Z,5.87
2022-11-27T17:06:27.786Z,6.28
2022-11-27T17:08:55.225Z,6.65
2022-11-27T17:11:24.688Z,6.20
2022-11-27T17:13:51.694Z,5.75
2022-11-27T17:16:18.820Z,5.87
2022-11-27T17:18:48.847Z,6.22
2022-11-27T17:22:02.302Z,6.35
2022-11-27T17:24:29.050Z,6.35
2022-11-27T17:26:58.419Z,6.65
2022-11-27T17:29:25.405Z,6.10
2022-11-27T17:31:52.113Z,6.05
2022-11-27T17:34:24.826Z,5.78
2022-11-27T17:36:59.813Z,6.12
2022-11-27T17:39:26.400Z,5.80
2022-11-27T17:41:52.993Z,5.95
2022-11-27T17:44:19.606Z,5.53
2022-11-27T17:46:49.944Z,5.78
2022-11-27T17:49:16.863Z,5.60
2022-11-27T17:51:43.854Z,5.87
2022-11-27T17:54:10.763Z,5.68
2022-11-27T17:56:37.355Z,5.72
2022-11-27T17:59:04.208Z,5.55
2022-11-27T18:01:31.055Z,6.12
2022-11-27T18:04:00.425Z,5.28
2022-11-27T18:06:27.094Z,6.15
2022-11-27T18:08:55.765Z,5.45
2022-11-27T18:11:23.381Z,5.37
2022-11-27T18:13:50.160Z,5.37
2022-11-27T18:16:18.081Z,5.95
2022-11-27T18:18:45.126Z,5.37
2022-11-27T18:21:18.020Z,5.45
2022-11-27T18:24:07.169Z,5.60
2022-11-27T18:26:52.540Z,5.65
2022-11-27T18:29:18.664Z,5.18
2022-11-27T18:31:46.733Z,5.22
2022-11-27T18:34:13.381Z,5.30
2022-11-27T18:36:39.953Z,5.12
2022-11-27T18:39:06.595Z,5.35
2022-11-27T18:41:33.217Z,5.00
2022-11-27T18:43:59.804Z,5.43
2022-11-27T18:46:26.501Z,5.30
2022-11-27T18:48:53.213Z,4.70
2022-11-27T18:51:21.803Z,4.97
2022-11-27T18:53:48.500Z,4.90
2022-11-27T18:56:17.610Z,5.62
2022-11-27T18:58:45.672Z,4.90
2022-11-27T19:01:14.160Z,4.65
2022-11-27T19:03:42.998Z,5.37
2022-11-27T19:06:10.559Z,5.72
2022-11-27T19:08:37.276Z,5.40
2022-11-27T19:11:11.586Z,5.57
2022-11-27T19:13:38.258Z,4.85
2022-11-27T19:16:12.319Z,5.28
2022-11-27T19:18:41.786Z,5.70
2022-11-27T19:21:12.793Z,5.72
2022-11-27T19:23:42.306Z,6.20
2022-11-27T19:26:10.092Z,6.78
2022-11-27T19:28:36.816Z,6.37
2022-11-27T19:31:04.910Z,6.30
2022-11-27T19:33:31.670Z,5.70
2022-11-27T19:36:01.934Z,5.70
2022-11-27T19:38:28.491Z,6.32
2022-11-27T19:40:55.270Z,6.15
2022-11-27T19:43:21.913Z,6.75
2022-11-27T19:45:48.598Z,6.45
2022-11-27T19:48:19.982Z,7.05
2022-11-27T19:50:50.416Z,6.53
2022-11-27T19:53:17.049Z,6.90
2022-11-27T19:55:43.613Z,6.40
2022-11-27T19:58:11.156Z,6.32
2022-11-27T20:00:37.726Z,6.87
2022-11-27T20:03:04.313Z,6.93
2022-11-27T20:05:30.915Z,7.43
2022-11-27T20:07:59.522Z,6.87
2022-11-27T20:10:26.336Z,7.28
2022-11-27T20:12:52.882Z,7.18
2022-11-27T20:15:19.617Z,6.75
2022-11-27T20:17:46.160Z,7.40
2022-11-27T20:20:13.444Z,6.62
2022-11-27T20:22:42.641Z,7.68
2022-11-27T20:25:19.580Z,6.95
2022-11-27T20:27:46.914Z,7.10
2022-11-27T20:30:13.544Z,7.32
2022-11-27T20:32:40.131Z,7.12
2022-11-27T20:35:06.860Z,8.10
2022-11-27T20:37:34.105Z,7.62
2022-11-27T20:40:00.708Z,7.15
2022-11-27T20:42:27.289Z,7.70
2022-11-27T20:44:53.997Z,7.55
2022-11-27T20:47:20.581Z,7.45
2022-11-27T20:49:47.143Z,7.12
2022-11-27T20:52:14.649Z,7.72
2022-11-27T20:54:41.292Z,8.02
2022-11-27T20:57:14.210Z,8.30
2022-11-27T20:59:41.705Z,8.02
2022-11-27T21:02:11.900Z,7.32
2022-11-27T21:04:38.627Z,8.13
2022-11-27T21:07:05.332Z,7.53
2022-11-27T21:09:31.908Z,7.18
2022-11-27T21:11:58.596Z,7.60
2022-11-27T21:14:25.170Z,7.37
2022-11-27T21:16:54.448Z,8.35
2022-11-27T21:19:22.934Z,7.35
2022-11-27T21:21:50.096Z,7.20
2022-11-27T21:24:16.773Z,7.35
2022-11-27T21:26:43.531Z,7.20
2022-11-27T21:29:13.089Z,7.20
2022-11-27T21:31:46.108Z,6.95
2022-11-27T21:34:16.579Z,6.68
2022-11-27T21:36:43.219Z,6.60
2022-11-27T21:39:11.437Z,6.62
2022-11-27T21:41:43.395Z,6.90
2022-11-27T21:44:10.205Z,7.10
2022-11-27T21:46:37.586Z,6.85
2022-11-27T21:49:06.999Z,7.03
2022-11-27T21:51:33.745Z,6.57
2022-11-27T21:54:13.535Z,6.97
2022-11-27T21:56:40.891Z,6.47
2022-11-27T21:59:08.579Z,6.57
2022-11-27T22:01:35.545Z,6.30
2022-11-27T22:04:02.637Z,6.90
2022-11-27T22:06:33.081Z,6.78
2022-11-27T22:08:59.658Z,6.40
2022-11-27T22:11:28.138Z,6.78
2022-11-27T22:13:57.809Z,7.15
2022-11-27T22:16:29.111Z,7.07
2022-11-27T22:18:56.807Z,6.57
2022-11-27T22:21:23.536Z,6.78
2022-11-27T22:23:50.265Z,6.53
2022-11-27T22:26:26.177Z,6.40
2022-11-27T22:28:52.770Z,7.37
2022-11-27T22:31:21.963Z,7.00
2022-11-27T22:33:49.338Z,7.50
2022-11-27T22:36:19.733Z,6.80
2022-11-27T22:39:00.263Z,7.18
2022-11-27T22:41:36.180Z,7.78
2022-11-27T22:44:11.363Z,6.87
2022-11-27T22:46:39.484Z,7.70
2022-11-27T22:49:06.186Z,6.78
2022-11-27T22:51:34.186Z,7.65
2022-11-27T22:54:01.597Z,7.43
2022-11-27T22:56:28.331Z,7.32
2022-11-27T22:59:11.257Z,7.85
2022-11-27T23:01:41.537Z,7.07
2022-11-27T23:04:08.085Z,8.00
2022-11-27T23:06:34.742Z,7.18
2022-11-27T23:09:01.349Z,6.80
2022-11-27T23:11:28.141Z,8.00
2022-11-27T23:13:56.057Z,7.32
2022-11-27T23:16:22.781Z,6.45
2022-11-27T23:18:50.765Z,6.80
2022-11-27T23:21:21.776Z,7.28
2022-11-27T23:23:48.354Z,7.68
2022-11-27T23:26:18.372Z,7.80
2022-11-27T23:28:45.459Z,7.03
2022-11-27T23:31:31.205Z,7.10
2022-11-27T23:33:58.369Z,7.90
2022-11-27T23:36:25.265Z,6.82
2022-11-27T23:38:51.849Z,6.80
2022-11-27T23:41:20.903Z,7.47
2022-11-27T23:43:47.728Z,7.25
2022-11-27T23:46:15.384Z,7.70
2022-11-27T23:48:42.269Z,7.37
2022-11-27T23:51:18.942Z,7.20
2022-11-27T23:53:45.639Z,7.37
2022-11-27T23:56:13.855Z,7.25
2022-11-27T23:58:45.344Z,8.27
